Time;durP1;ratioP1;P1;durP2;ratioP2;P2;SDS_P1;SDS_P2;PMS_P1;PMS_P2;Temp;Humidity;BMP_temperature;BMP_pressure;BME280_temperature;BME280_humidity;BME280_pressure;Samples;Min_cycle;Max_cycle;Signal;HPM_P1;HPM_P2
2021/12/29 00:00:52;;;;;;;5.80;2.97;;;;;;;;;;5012949;28;20636;-61
2021/12/29 00:03:18;;;;;;;5.68;2.92;;;;;;;;;;5013215;28;20221;-61
2021/12/29 00:05:43;;;;;;;6.93;2.95;;;;;;;;;;5013729;28;20209;-61
2021/12/29 00:08:08;;;;;;;8.32;3.08;;;;;;;;;;5012381;28;20738;-62
2021/12/29 00:10:33;;;;;;;5.90;2.72;;;;;;;;;;5013901;28;20205;-61
2021/12/29 00:12:59;;;;;;;5.55;2.78;;;;;;;;;;5013568;28;20299;-61
2021/12/29 00:15:26;;;;;;;7.30;3.00;;;;;;;;;;5011112;28;20547;-62
2021/12/29 00:17:51;;;;;;;7.05;2.85;;;;;;;;;;5013405;28;20299;-61
2021/12/29 00:20:17;;;;;;;7.28;2.80;;;;;;;;;;5012923;28;20648;-62
2021/12/29 00:22:42;;;;;;;4.93;2.67;;;;;;;;;;5011300;28;20216;-61
2021/12/29 00:25:08;;;;;;;8.15;3.42;;;;;;;;;;5012641;28;20219;-62
2021/12/29 00:27:33;;;;;;;6.85;3.30;;;;;;;;;;5013492;28;20209;-61
2021/12/29 00:29:58;;;;;;;5.47;3.15;;;;;;;;;;5012434;28;20235;-61
2021/12/29 00:32:24;;;;;;;8.25;3.22;;;;;;;;;;5012542;28;20567;-61
2021/12/29 00:34:49;;;;;;;8.95;3.60;;;;;;;;;;5013129;28;20240;-61
2021/12/29 00:37:14;;;;;;;6.40;3.80;;;;;;;;;;5010350;28;20307;-61
2021/12/29 00:39:39;;;;;;;8.77;4.03;;;;;;;;;;5011599;28;20278;-62
2021/12/29 00:42:05;;;;;;;6.43;4.40;;;;;;;;;;5012603;28;20232;-62
2021/12/29 00:44:32;;;;;;;6.97;4.55;;;;;;;;;;5012182;28;20216;-62
2021/12/29 00:46:57;;;;;;;6.03;4.35;;;;;;;;;;5012863;28;20236;-62
2021/12/29 00:49:30;;;;;;;6.78;4.75;;;;;;;;;;5011406;28;20208;-63
2021/12/29 00:51:55;;;;;;;8.38;5.40;;;;;;;;;;5011480;28;20687;-62
2021/12/29 00:54:20;;;;;;;6.60;4.70;;;;;;;;;;5012227;28;20213;-62
2021/12/29 00:56:46;;;;;;;6.30;4.30;;;;;;;;;;5012058;28;20220;-62
2021/12/29 00:59:11;;;;;;;7.35;4.55;;;;;;;;;;5011705;28;20564;-62
2021/12/29 01:01:36;;;;;;;7.80;4.45;;;;;;;;;;5012228;28;20251;-62
2021/12/29 01:04:03;;;;;;;6.65;3.90;;;;;;;;;;5011139;28;20610;-62
2021/12/29 01:06:28;;;;;;;9.18;3.80;;;;;;;;;;5012645;28;20292;-62
2021/12/29 01:08:53;;;;;;;5.35;3.33;;;;;;;;;;5012353;28;20292;-62
2021/12/29 01:11:18;;;;;;;4.85;3.55;;;;;;;;;;5011306;28;20647;-62
2021/12/29 01:13:47;;;;;;;5.68;3.65;;;;;;;;;;5011183;28;20236;-62
2021/12/29 01:18:59;;;;;;;6.55;3.95;;;;;;;;;;5010202;28;20255;-62
2021/12/29 01:21:24;;;;;;;6.30;4.50;;;;;;;;;;5011644;28;20224;-62
2021/12/29 01:23:49;;;;;;;7.38;4.70;;;;;;;;;;5010755;28;20231;-62
2021/12/29 01:26:14;;;;;;;7.78;5.22;;;;;;;;;;5009848;28;20209;-62
2021/12/29 01:28:40;;;;;;;7.45;4.53;;;;;;;;;;5012106;28;20216;-62
2021/12/29 01:31:05;;;;;;;7.35;4.70;;;;;;;;;;5011690;28;20247;-62
2021/12/29 01:33:30;;;;;;;9.02;4.35;;;;;;;;;;5011140;28;20215;-62
2021/12/29 01:35:55;;;;;;;7.80;4.82;;;;;;;;;;5011752;28;20217;-62
2021/12/29 01:38:21;;;;;;;7.30;4.35;;;;;;;;;;5011497;28;20215;-62
2021/12/29 01:40:49;;;;;;;8.15;4.50;;;;;;;;;;5009574;28;20219;-62
2021/12/29 01:43:14;;;;;;;9.32;4.57;;;;;;;;;;5010201;28;20220;-62
2021/12/29 01:45:39;;;;;;;10.15;5.00;;;;;;;;;;5011154;28;20235;-62
2021/12/29 01:48:04;;;;;;;9.68;4.68;;;;;;;;;;5011107;28;20766;-62
2021/12/29 01:50:31;;;;;;;10.10;4.63;;;;;;;;;;5011626;28;20211;-62
2021/12/29 01:53:01;;;;;;;8.18;4.55;;;;;;;;;;5011052;28;20220;-62
2021/12/29 01:55:27;;;;;;;7.63;5.03;;;;;;;;;;5011373;28;20216;-62
2021/12/29 01:57:53;;;;;;;9.98;5.20;;;;;;;;;;5011867;28;20217;-62
2021/12/29 02:00:19;;;;;;;9.25;5.60;;;;;;;;;;5010239;28;20223;-62
2021/12/29 02:02:44;;;;;;;9.23;5.25;;;;;;;;;;5010274;28;20224;-62
2021/12/29 02:05:09;;;;;;;9.57;5.88;;;;;;;;;;5010853;28;20346;-62
2021/12/29 02:07:35;;;;;;;9.73;5.80;;;;;;;;;;5009647;28;20274;-62
2021/12/29 02:10:00;;;;;;;11.40;6.22;;;;;;;;;;5011353;28;20287;-62
2021/12/29 02:12:25;;;;;;;10.77;6.80;;;;;;;;;;5010823;28;20613;-62
2021/12/29 02:14:51;;;;;;;14.35;7.72;;;;;;;;;;5010738;28;20212;-62
2021/12/29 02:17:16;;;;;;;13.02;7.88;;;;;;;;;;5010915;28;20216;-62
2021/12/29 02:19:46;;;;;;;13.50;8.45;;;;;;;;;;5010995;28;20266;-62
2021/12/29 02:22:23;;;;;;;14.75;8.82;;;;;;;;;;5009882;28;20743;-62
2021/12/29 02:24:54;;;;;;;16.83;10.48;;;;;;;;;;5010941;28;21052;-62
2021/12/29 02:27:19;;;;;;;17.02;10.27;;;;;;;;;;5010666;28;20291;-62
2021/12/29 02:29:46;;;;;;;19.38;10.90;;;;;;;;;;5010241;28;20287;-62
2021/12/29 02:32:11;;;;;;;20.48;10.93;;;;;;;;;;5009356;28;20650;-62
2021/12/29 02:34:37;;;;;;;17.33;10.77;;;;;;;;;;5010801;28;20209;-62
2021/12/29 02:37:03;;;;;;;15.70;10.02;;;;;;;;;;5008421;28;20266;-62
2021/12/29 02:39:31;;;;;;;18.73;10.77;;;;;;;;;;5011014;28;20216;-62
2021/12/29 02:41:57;;;;;;;18.80;10.35;;;;;;;;;;5009905;28;20216;-62
2021/12/29 02:44:27;;;;;;;19.00;11.20;;;;;;;;;;4992853;28;20692;-62
2021/12/29 02:46:52;;;;;;;15.63;9.93;;;;;;;;;;5010648;28;20278;-62
2021/12/29 02:49:18;;;;;;;15.80;10.07;;;;;;;;;;5009566;28;20688;-62
2021/12/29 02:51:43;;;;;;;20.27;9.65;;;;;;;;;;5009419;28;20294;-62
2021/12/29 02:54:09;;;;;;;18.17;9.63;;;;;;;;;;5009236;28;20287;-62
2021/12/29 02:56:34;;;;;;;17.88;10.20;;;;;;;;;;5009981;28;20224;-62
2021/12/29 02:58:59;;;;;;;15.75;8.82;;;;;;;;;;5009359;28;20201;-62
2021/12/29 03:01:26;;;;;;;17.33;9.18;;;;;;;;;;5010013;28;20232;-62
2021/12/29 03:03:52;;;;;;;14.82;8.80;;;;;;;;;;5010047;28;20209;-61
2021/12/29 03:06:17;;;;;;;14.02;8.63;;;;;;;;;;5010006;28;20235;-62
2021/12/29 03:08:42;;;;;;;14.13;9.13;;;;;;;;;;5010722;28;20246;-62
2021/12/29 03:11:07;;;;;;;13.70;9.10;;;;;;;;;;5008083;28;20219;-62
2021/12/29 03:13:33;;;;;;;14.45;9.10;;;;;;;;;;5010522;28;20254;-62
2021/12/29 03:15:59;;;;;;;14.15;9.63;;;;;;;;;;5009230;28;20266;-62
2021/12/29 03:18:24;;;;;;;14.80;8.60;;;;;;;;;;5008214;28;20212;-62
2021/12/29 03:20:49;;;;;;;13.73;8.55;;;;;;;;;;5010175;28;20347;-61
2021/12/29 03:23:15;;;;;;;11.70;8.65;;;;;;;;;;5011636;28;20216;-62
2021/12/29 03:25:40;;;;;;;11.73;8.07;;;;;;;;;;5012461;28;20230;-62
2021/12/29 03:28:05;;;;;;;12.25;7.00;;;;;;;;;;5013857;28;20216;-62
2021/12/29 03:30:32;;;;;;;12.13;7.65;;;;;;;;;;5014357;28;20358;-61
2021/12/29 03:33:03;;;;;;;12.15;7.20;;;;;;;;;;5013675;28;20208;-61
2021/12/29 03:35:29;;;;;;;13.32;8.43;;;;;;;;;;5014084;28;20214;-62
2021/12/29 03:37:55;;;;;;;11.00;7.20;;;;;;;;;;5012712;28;20216;-61
2021/12/29 03:40:20;;;;;;;13.18;7.03;;;;;;;;;;5013262;28;20220;-62
2021/12/29 03:42:45;;;;;;;11.75;6.43;;;;;;;;;;5014032;28;20224;-62
2021/12/29 03:45:11;;;;;;;11.00;6.55;;;;;;;;;;5012967;28;20212;-62
2021/12/29 03:47:36;;;;;;;10.82;6.28;;;;;;;;;;5013790;28;20278;-62
2021/12/29 03:50:01;;;;;;;13.27;7.07;;;;;;;;;;5013742;28;20684;-62
2021/12/29 03:52:27;;;;;;;15.50;7.22;;;;;;;;;;5011492;28;20585;-62
2021/12/29 03:54:52;;;;;;;15.80;7.50;;;;;;;;;;5014234;28;20212;-62
2021/12/29 03:57:17;;;;;;;15.50;8.25;;;;;;;;;;5013356;28;20306;-62
2021/12/29 03:59:43;;;;;;;14.50;8.18;;;;;;;;;;5013074;28;20506;-61
2021/12/29 04:02:08;;;;;;;13.93;7.78;;;;;;;;;;5011889;28;20731;-61
2021/12/29 04:04:33;;;;;;;13.85;8.35;;;;;;;;;;5013842;28;20232;-62
2021/12/29 04:06:58;;;;;;;18.15;8.35;;;;;;;;;;5011371;28;20220;-61
2021/12/29 04:09:24;;;;;;;16.98;8.50;;;;;;;;;;5013289;28;20219;-62
2021/12/29 04:11:50;;;;;;;17.42;8.45;;;;;;;;;;5013395;28;20204;-61
2021/12/29 04:14:17;;;;;;;15.18;7.70;;;;;;;;;;5012427;28;20752;-61
2021/12/29 04:16:45;;;;;;;18.17;7.47;;;;;;;;;;5013422;28;20350;-61
2021/12/29 04:19:29;;;;;;;14.13;7.00;;;;;;;;;;5028166;28;20223;-61
2021/12/29 04:21:54;;;;;;;14.90;7.82;;;;;;;;;;5012265;28;20351;-61
2021/12/29 04:24:20;;;;;;;17.02;8.18;;;;;;;;;;5013030;28;20310;-61
2021/12/29 04:26:45;;;;;;;17.55;7.25;;;;;;;;;;5013290;28;20208;-61
2021/12/29 04:29:10;;;;;;;16.77;7.25;;;;;;;;;;5011961;28;20220;-62
2021/12/29 04:31:36;;;;;;;18.98;7.30;;;;;;;;;;5013192;28;20270;-62
2021/12/29 04:34:01;;;;;;;18.13;7.40;;;;;;;;;;5011033;28;20224;-62
2021/12/29 04:36:26;;;;;;;18.60;7.25;;;;;;;;;;5011609;28;20640;-62
2021/12/29 04:38:53;;;;;;;18.85;8.00;;;;;;;;;;5013062;28;20205;-62
2021/12/29 04:41:18;;;;;;;15.00;6.82;;;;;;;;;;5012133;28;20224;-62
2021/12/29 04:43:44;;;;;;;14.25;7.00;;;;;;;;;;5012611;28;20208;-62
2021/12/29 04:46:14;;;;;;;17.60;6.75;;;;;;;;;;5012389;28;20295;-63
2021/12/29 04:48:46;;;;;;;12.52;6.00;;;;;;;;;;5012226;28;20212;-62
2021/12/29 04:51:15;;;;;;;15.90;6.40;;;;;;;;;;5012518;28;20270;-62
2021/12/29 04:53:40;;;;;;;14.55;6.10;;;;;;;;;;5011483;28;20204;-62
2021/12/29 04:56:05;;;;;;;14.02;5.40;;;;;;;;;;5011742;28;20216;-62
2021/12/29 04:58:31;;;;;;;18.17;5.38;;;;;;;;;;5012646;28;20291;-62
2021/12/29 05:00:56;;;;;;;13.50;4.45;;;;;;;;;;5012553;28;20208;-62
2021/12/29 05:03:21;;;;;;;11.98;4.00;;;;;;;;;;5011515;28;20304;-62
2021/12/29 05:05:56;;;;;;;12.18;4.32;;;;;;;;;;5012559;28;20204;-62
2021/12/29 05:08:29;;;;;;;16.45;4.10;;;;;;;;;;5011856;28;20227;-62
2021/12/29 05:10:56;;;;;;;14.43;4.40;;;;;;;;;;5010588;28;20208;-62
2021/12/29 05:13:21;;;;;;;11.65;4.80;;;;;;;;;;5010462;28;20220;-62
2021/12/29 05:15:46;;;;;;;11.43;3.88;;;;;;;;;;5012480;28;20216;-62
2021/12/29 05:18:12;;;;;;;13.05;4.53;;;;;;;;;;5011094;28;20553;-62
2021/12/29 05:20:37;;;;;;;13.65;4.43;;;;;;;;;;5011204;28;20834;-62
2021/12/29 05:23:02;;;;;;;11.32;3.85;;;;;;;;;;5011682;28;20227;-63
2021/12/29 05:25:28;;;;;;;12.70;4.20;;;;;;;;;;5010050;28;20732;-62
2021/12/29 05:27:53;;;;;;;13.50;4.88;;;;;;;;;;5012209;28;20223;-62
2021/12/29 05:30:18;;;;;;;16.02;4.68;;;;;;;;;;5011503;28;20215;-62
2021/12/29 05:32:44;;;;;;;13.38;5.00;;;;;;;;;;5011352;28;20201;-62
2021/12/29 05:35:09;;;;;;;14.63;5.40;;;;;;;;;;5011664;28;20220;-62
2021/12/29 05:37:34;;;;;;;14.95;4.70;;;;;;;;;;5011239;28;20212;-62
2021/12/29 05:40:00;;;;;;;13.77;4.80;;;;;;;;;;5011492;28;20661;-62
2021/12/29 05:42:25;;;;;;;11.57;5.00;;;;;;;;;;5011293;28;20308;-62
2021/12/29 05:44:50;;;;;;;14.98;5.72;;;;;;;;;;5010969;28;20224;-62
2021/12/29 05:47:15;;;;;;;16.30;5.45;;;;;;;;;;5010800;28;20302;-63
2021/12/29 05:49:41;;;;;;;10.38;5.03;;;;;;;;;;5011890;28;20676;-63
2021/12/29 05:52:06;;;;;;;16.20;6.05;;;;;;;;;;5010508;28;20227;-63
2021/12/29 05:54:32;;;;;;;15.05;5.47;;;;;;;;;;5011606;28;20684;-63
2021/12/29 05:56:57;;;;;;;15.77;5.03;;;;;;;;;;5011630;28;20296;-63
2021/12/29 05:59:23;;;;;;;14.60;5.30;;;;;;;;;;5010357;28;20220;-63
2021/12/29 06:01:48;;;;;;;12.25;4.93;;;;;;;;;;5011585;28;20271;-63
2021/12/29 06:04:13;;;;;;;11.68;5.18;;;;;;;;;;5011144;28;20219;-63
2021/12/29 06:06:38;;;;;;;12.45;5.00;;;;;;;;;;5010792;28;20259;-63
2021/12/29 06:09:04;;;;;;;13.60;5.15;;;;;;;;;;5010844;28;20215;-62
2021/12/29 06:11:29;;;;;;;10.48;5.05;;;;;;;;;;5010200;28;20231;-63
2021/12/29 06:13:54;;;;;;;13.50;5.70;;;;;;;;;;5010627;28;20667;-62
2021/12/29 06:16:19;;;;;;;12.23;5.47;;;;;;;;;;5010866;28;20221;-63
2021/12/29 06:18:45;;;;;;;12.88;5.53;;;;;;;;;;5011227;28;20209;-63
2021/12/29 06:21:16;;;;;;;9.57;4.80;;;;;;;;;;5009965;28;20232;-63
2021/12/29 06:23:42;;;;;;;9.30;5.30;;;;;;;;;;5011165;28;20255;-62
2021/12/29 06:26:07;;;;;;;8.85;4.75;;;;;;;;;;5010876;28;20212;-62
2021/12/29 06:28:32;;;;;;;8.52;5.65;;;;;;;;;;5010150;28;20208;-62
2021/12/29 06:30:57;;;;;;;8.90;5.07;;;;;;;;;;5010849;28;20774;-62
2021/12/29 06:33:23;;;;;;;9.02;4.93;;;;;;;;;;5010650;28;20212;-62
2021/12/29 06:35:48;;;;;;;9.50;5.28;;;;;;;;;;5010177;28;20216;-63
2021/12/29 06:38:13;;;;;;;10.65;5.63;;;;;;;;;;5009241;28;20221;-63
2021/12/29 06:40:38;;;;;;;9.65;5.63;;;;;;;;;;5011087;28;20592;-63
2021/12/29 06:43:04;;;;;;;9.65;5.55;;;;;;;;;;5009718;28;20286;-63
2021/12/29 06:45:29;;;;;;;9.18;5.70;;;;;;;;;;5010957;28;20216;-64
2021/12/29 06:47:54;;;;;;;10.80;5.70;;;;;;;;;;5010408;28;20735;-63
2021/12/29 06:50:19;;;;;;;11.23;5.95;;;;;;;;;;5010079;28;22442;-63
2021/12/29 06:52:45;;;;;;;10.38;5.45;;;;;;;;;;5010803;28;20295;-63
2021/12/29 06:55:10;;;;;;;8.82;4.93;;;;;;;;;;5009461;28;20571;-63
2021/12/29 06:57:36;;;;;;;8.63;5.03;;;;;;;;;;5010034;28;20216;-63
2021/12/29 07:00:01;;;;;;;8.05;5.55;;;;;;;;;;5010383;28;20220;-63
2021/12/29 07:02:26;;;;;;;12.43;5.63;;;;;;;;;;5008326;28;20579;-63
2021/12/29 07:04:51;;;;;;;8.52;5.32;;;;;;;;;;5010589;28;20205;-63
2021/12/29 07:07:17;;;;;;;7.57;5.38;;;;;;;;;;5010190;28;20228;-63
2021/12/29 07:09:42;;;;;;;6.63;4.78;;;;;;;;;;5010033;28;20208;-63
2021/12/29 07:12:08;;;;;;;6.93;4.22;;;;;;;;;;5008670;28;20220;-63
2021/12/29 07:14:33;;;;;;;5.05;3.85;;;;;;;;;;5009177;28;20694;-63
2021/12/29 07:16:58;;;;;;;6.82;4.30;;;;;;;;;;5009389;28;20735;-63
2021/12/29 07:19:24;;;;;;;7.80;3.97;;;;;;;;;;5008609;28;20215;-63
2021/12/29 07:21:49;;;;;;;5.93;3.88;;;;;;;;;;5008998;28;20217;-63
2021/12/29 07:24:16;;;;;;;5.50;2.95;;;;;;;;;;5009146;28;20706;-64
2021/12/29 07:26:41;;;;;;;6.20;3.70;;;;;;;;;;5008133;28;20423;-62
2021/12/29 07:29:06;;;;;;;5.40;3.37;;;;;;;;;;5008390;28;20480;-62
2021/12/29 07:31:32;;;;;;;6.00;3.08;;;;;;;;;;5007765;28;20213;-61
2021/12/29 07:33:57;;;;;;;6.63;2.88;;;;;;;;;;5009681;28;20216;-61
2021/12/29 07:36:22;;;;;;;5.35;2.92;;;;;;;;;;5009473;28;20216;-61
2021/12/29 07:38:48;;;;;;;6.07;2.83;;;;;;;;;;5008957;28;20212;-61
2021/12/29 07:41:13;;;;;;;5.75;3.28;;;;;;;;;;5008907;28;20751;-61
2021/12/29 07:43:39;;;;;;;7.28;3.20;;;;;;;;;;5010238;28;20201;-61
2021/12/29 07:46:04;;;;;;;6.97;3.40;;;;;;;;;;5009037;28;20209;-61
2021/12/29 07:48:30;;;;;;;7.20;3.92;;;;;;;;;;5009687;28;20235;-61
2021/12/29 07:50:56;;;;;;;12.73;3.53;;;;;;;;;;5010159;28;20232;-61
2021/12/29 07:53:21;;;;;;;10.93;4.32;;;;;;;;;;5009034;28;20208;-61
2021/12/29 07:55:47;;;;;;;7.50;3.72;;;;;;;;;;5010298;28;20213;-61
2021/12/29 07:58:13;;;;;;;17.17;4.68;;;;;;;;;;5009571;28;20311;-62
2021/12/29 08:00:39;;;;;;;8.55;4.18;;;;;;;;;;5009577;28;20300;-61
2021/12/29 08:03:04;;;;;;;11.60;4.78;;;;;;;;;;5006036;28;20327;-64
2021/12/29 08:05:29;;;;;;;10.07;4.45;;;;;;;;;;5007957;28;20267;-61
2021/12/29 08:07:55;;;;;;;15.37;5.90;;;;;;;;;;5009404;28;20918;-61
2021/12/29 08:10:20;;;;;;;9.25;4.40;;;;;;;;;;5010773;28;20670;-62
2021/12/29 08:12:46;;;;;;;11.18;4.70;;;;;;;;;;5011202;28;20473;-62
2021/12/29 08:15:11;;;;;;;10.05;5.00;;;;;;;;;;5013037;28;20216;-68
2021/12/29 08:17:37;;;;;;;9.80;4.85;;;;;;;;;;5012888;28;20282;-61
2021/12/29 08:20:03;;;;;;;14.23;5.60;;;;;;;;;;5012119;28;20231;-62
2021/12/29 08:22:28;;;;;;;14.43;5.97;;;;;;;;;;5012078;28;20224;-61
2021/12/29 08:24:54;;;;;;;12.27;5.65;;;;;;;;;;5013134;28;20251;-61
2021/12/29 08:27:19;;;;;;;13.23;5.65;;;;;;;;;;5011918;28;20208;-61
2021/12/29 08:29:45;;;;;;;13.98;5.85;;;;;;;;;;5012058;28;20242;-61
2021/12/29 08:32:10;;;;;;;12.23;5.90;;;;;;;;;;5012888;28;20212;-66
2021/12/29 08:34:35;;;;;;;13.35;5.63;;;;;;;;;;5011847;28;20214;-65
2021/12/29 08:37:00;;;;;;;16.23;6.15;;;;;;;;;;5012547;28;20208;-65
2021/12/29 08:39:26;;;;;;;8.63;2.67;;;;;;;;;;5012870;28;20213;-62
2021/12/29 08:41:51;;;;;;;13.38;5.95;;;;;;;;;;5012242;28;20606;-62
2021/12/29 08:44:16;;;;;;;15.70;7.03;;;;;;;;;;5012343;28;20220;-61
2021/12/29 08:46:42;;;;;;;13.95;6.70;;;;;;;;;;5011379;28;20293;-61
2021/12/29 08:49:07;;;;;;;17.10;7.10;;;;;;;;;;5011149;28;20307;-61
2021/12/29 08:51:32;;;;;;;16.58;7.97;;;;;;;;;;5011492;28;20664;-61
2021/12/29 08:53:59;;;;;;;14.32;7.45;;;;;;;;;;5012765;28;20766;-61
2021/12/29 08:56:24;;;;;;;17.65;8.93;;;;;;;;;;5011636;28;20246;-61
2021/12/29 08:58:50;;;;;;;18.33;8.63;;;;;;;;;;5011188;28;20759;-61
2021/12/29 09:01:16;;;;;;;19.40;8.05;;;;;;;;;;5010919;28;20232;-61
2021/12/29 09:03:41;;;;;;;16.27;8.60;;;;;;;;;;5011378;28;20719;-61
2021/12/29 09:06:06;;;;;;;15.02;8.20;;;;;;;;;;5011907;28;20213;-61
2021/12/29 09:08:32;;;;;;;20.15;8.98;;;;;;;;;;5012552;28;20747;-61
2021/12/29 09:10:57;;;;;;;18.20;8.85;;;;;;;;;;5011557;28;20224;-61
2021/12/29 09:13:22;;;;;;;69.55;38.22;;;;;;;;;;5011834;28;20302;-61
2021/12/29 09:15:49;;;;;;;18.88;10.80;;;;;;;;;;5010141;28;20205;-61
2021/12/29 09:18:15;;;;;;;17.45;9.98;;;;;;;;;;5010183;28;20239;-59
2021/12/29 09:20:45;;;;;;;25.15;16.23;;;;;;;;;;5010657;28;20419;-61
2021/12/29 09:23:10;;;;;;;31.15;19.40;;;;;;;;;;5011072;28;20274;-62
2021/12/29 09:25:37;;;;;;;26.75;18.50;;;;;;;;;;5012429;28;20212;-61
2021/12/29 09:28:02;;;;;;;35.33;25.58;;;;;;;;;;5011771;28;20217;-62
2021/12/29 09:30:28;;;;;;;41.50;29.23;;;;;;;;;;5011320;28;20223;-61
2021/12/29 09:32:53;;;;;;;27.23;13.15;;;;;;;;;;5011646;28;20291;-63
2021/12/29 09:35:20;;;;;;;18.48;11.75;;;;;;;;;;5011404;28;20625;-62
2021/12/29 09:37:45;;;;;;;19.00;12.05;;;;;;;;;;5011277;28;20220;-61
2021/12/29 09:40:11;;;;;;;20.48;12.48;;;;;;;;;;5010192;28;20216;-61
2021/12/29 09:42:36;;;;;;;31.38;20.73;;;;;;;;;;5011746;28;20225;-61
2021/12/29 09:45:01;;;;;;;38.33;31.15;;;;;;;;;;5009160;28;20216;-61
2021/12/29 09:47:28;;;;;;;19.15;13.80;;;;;;;;;;5011232;28;20521;-61
2021/12/29 09:49:54;;;;;;;27.58;16.98;;;;;;;;;;5011761;28;20568;-61
2021/12/29 09:52:19;;;;;;;27.52;17.42;;;;;;;;;;5009196;28;20852;-61
2021/12/29 09:54:44;;;;;;;25.70;12.82;;;;;;;;;;5010501;28;20209;-61
2021/12/29 09:57:10;;;;;;;18.27;11.65;;;;;;;;;;5011385;28;20212;-61
2021/12/29 09:59:35;;;;;;;21.27;11.55;;;;;;;;;;5009531;28;20626;-61
2021/12/29 10:02:00;;;;;;;22.20;10.90;;;;;;;;;;5010702;28;20723;-61
2021/12/29 10:04:26;;;;;;;18.05;11.90;;;;;;;;;;5011423;28;20576;-61
2021/12/29 10:06:51;;;;;;;23.80;11.38;;;;;;;;;;5009408;28;20250;-61
2021/12/29 10:09:17;;;;;;;25.05;12.27;;;;;;;;;;5010960;28;20216;-61
2021/12/29 10:11:42;;;;;;;20.13;11.38;;;;;;;;;;5011245;28;20746;-61
2021/12/29 10:14:09;;;;;;;19.45;11.95;;;;;;;;;;5010142;28;20224;-61
2021/12/29 10:16:34;;;;;;;19.65;11.77;;;;;;;;;;5011064;28;20350;-62
2021/12/29 10:19:02;;;;;;;33.45;22.58;;;;;;;;;;4991307;28;20724;-61
2021/12/29 10:21:28;;;;;;;27.23;19.60;;;;;;;;;;5008839;28;20204;-61
2021/12/29 10:23:54;;;;;;;21.70;12.98;;;;;;;;;;5010951;28;20220;-61
2021/12/29 10:26:20;;;;;;;28.02;20.75;;;;;;;;;;5009897;28;20221;-61
2021/12/29 10:28:48;;;;;;;22.52;14.38;;;;;;;;;;5011061;28;20213;-61
2021/12/29 10:31:15;;;;;;;20.23;11.93;;;;;;;;;;5010347;28;20299;-67
2021/12/29 10:33:43;;;;;;;30.38;20.95;;;;;;;;;;5008460;28;20216;-68
2021/12/29 10:36:09;;;;;;;18.27;11.20;;;;;;;;;;5008987;28;20242;-66
2021/12/29 10:38:34;;;;;;;20.10;10.50;;;;;;;;;;4991289;28;20209;-67
2021/12/29 10:41:01;;;;;;;19.85;11.70;;;;;;;;;;4990343;28;20234;-69
2021/12/29 10:43:27;;;;;;;21.17;11.27;;;;;;;;;;4989571;28;20209;-69
2021/12/29 10:45:52;;;;;;;17.52;10.70;;;;;;;;;;4989609;28;20335;-68
2021/12/29 10:48:20;;;;;;;19.48;11.85;;;;;;;;;;4989358;28;20577;-69
2021/12/29 10:50:56;;;;;;;18.35;11.95;;;;;;;;;;4989641;28;20220;-68
2021/12/29 10:53:21;;;;;;;19.25;11.75;;;;;;;;;;4990611;28;20231;-65
2021/12/29 10:55:46;;;;;;;20.42;12.43;;;;;;;;;;4990357;28;20589;-68
2021/12/29 10:58:14;;;;;;;17.67;10.85;;;;;;;;;;5008597;28;20235;-69
2021/12/29 11:00:39;;;;;;;18.23;11.55;;;;;;;;;;5030176;28;20687;-69
2021/12/29 11:03:07;;;;;;;15.82;10.85;;;;;;;;;;5028548;28;20224;-69
2021/12/29 11:05:39;;;;;;;37.80;15.93;;;;;;;;;;5026071;28;20217;-61
2021/12/29 11:08:05;;;;;;;21.45;11.40;;;;;;;;;;5009943;28;20209;-61
2021/12/29 11:10:31;;;;;;;17.33;11.32;;;;;;;;;;5009863;28;20212;-61
2021/12/29 11:12:56;;;;;;;18.45;11.80;;;;;;;;;;5010258;28;20267;-61
2021/12/29 11:15:22;;;;;;;16.40;10.20;;;;;;;;;;5008593;28;20571;-61
2021/12/29 11:17:47;;;;;;;16.92;10.50;;;;;;;;;;5009868;28;20196;-61
2021/12/29 11:20:20;;;;;;;17.25;10.48;;;;;;;;;;5009950;28;20278;-61
2021/12/29 11:22:46;;;;;;;14.30;9.65;;;;;;;;;;5008090;28;20327;-61
2021/12/29 11:25:11;;;;;;;16.33;10.93;;;;;;;;;;5008630;28;20303;-71
2021/12/29 11:27:37;;;;;;;16.90;10.10;;;;;;;;;;5008626;28;20204;-76
2021/12/29 11:30:09;;;;;;;15.98;9.85;;;;;;;;;;5007968;28;20212;-61
2021/12/29 11:32:35;;;;;;;16.05;9.98;;;;;;;;;;5009488;28;20216;-61
2021/12/29 11:35:01;;;;;;;17.88;10.15;;;;;;;;;;5009775;28;20209;-62
2021/12/29 11:37:26;;;;;;;16.15;9.77;;;;;;;;;;5008734;28;20223;-61
2021/12/29 11:39:51;;;;;;;16.27;11.05;;;;;;;;;;5010145;28;20209;-61
2021/12/29 11:42:17;;;;;;;16.13;10.82;;;;;;;;;;5009614;28;20228;-61
2021/12/29 11:44:43;;;;;;;15.20;10.18;;;;;;;;;;5010149;28;20624;-61
2021/12/29 11:47:08;;;;;;;18.40;10.70;;;;;;;;;;5012889;28;20244;-62
2021/12/29 11:49:34;;;;;;;15.35;10.70;;;;;;;;;;5012519;28;20209;-61
2021/12/29 11:52:09;;;;;;;15.40;9.82;;;;;;;;;;5022632;28;20226;-61
2021/12/29 11:54:36;;;;;;;17.00;11.02;;;;;;;;;;5033366;28;20211;-61
2021/12/29 11:57:09;;;;;;;17.58;11.15;;;;;;;;;;5033217;28;20207;-61
2021/12/29 11:59:35;;;;;;;18.10;12.55;;;;;;;;;;5032896;28;20277;-61
2021/12/29 12:02:02;;;;;;;17.48;13.13;;;;;;;;;;5032977;28;20372;-61
2021/12/29 12:04:28;;;;;;;18.73;12.43;;;;;;;;;;5031151;28;20305;-61
2021/12/29 12:06:59;;;;;;;18.17;11.65;;;;;;;;;;5010364;28;20668;-61
2021/12/29 12:09:25;;;;;;;16.20;11.85;;;;;;;;;;5012955;28;20208;-61
2021/12/29 12:11:50;;;;;;;13.00;10.00;;;;;;;;;;5011646;28;20823;-61
2021/12/29 12:14:17;;;;;;;14.45;10.15;;;;;;;;;;5013185;28;20299;-61
2021/12/29 12:16:49;;;;;;;13.93;10.32;;;;;;;;;;5013120;28;20247;-61
2021/12/29 12:19:20;;;;;;;18.90;11.55;;;;;;;;;;5010828;28;20223;-61
2021/12/29 12:21:46;;;;;;;15.32;10.82;;;;;;;;;;5013190;28;20216;-61
2021/12/29 12:24:15;;;;;;;16.45;11.52;;;;;;;;;;4996415;28;20347;-61
2021/12/29 12:26:48;;;;;;;19.33;12.50;;;;;;;;;;4993180;28;20292;-61
2021/12/29 12:29:14;;;;;;;32.20;18.33;;;;;;;;;;4992039;28;20220;-61
2021/12/29 12:31:39;;;;;;;16.20;11.35;;;;;;;;;;4993260;28;20213;-61
2021/12/29 12:34:10;;;;;;;17.50;11.30;;;;;;;;;;4992000;28;20223;-61
2021/12/29 12:36:35;;;;;;;13.95;10.70;;;;;;;;;;5004972;28;20212;-61
2021/12/29 12:39:06;;;;;;;18.52;13.60;;;;;;;;;;4999064;28;20227;-62
2021/12/29 12:41:35;;;;;;;14.40;9.82;;;;;;;;;;4998478;28;20238;-61
2021/12/29 12:44:00;;;;;;;13.57;9.77;;;;;;;;;;5001674;28;20231;-60
2021/12/29 12:46:27;;;;;;;21.40;15.30;;;;;;;;;;5006586;28;20212;-61
2021/12/29 12:48:52;;;;;;;15.80;11.30;;;;;;;;;;5005222;28;20977;-61
2021/12/29 12:51:18;;;;;;;21.05;14.60;;;;;;;;;;5006653;28;20680;-61
2021/12/29 12:53:43;;;;;;;31.05;20.10;;;;;;;;;;5006170;28;20227;-60
2021/12/29 12:56:15;;;;;;;12.65;9.45;;;;;;;;;;5005598;28;20696;-61
2021/12/29 12:58:42;;;;;;;29.38;17.88;;;;;;;;;;5006089;28;20350;-61
2021/12/29 13:01:08;;;;;;;13.98;9.75;;;;;;;;;;4992620;28;20291;-61
2021/12/29 13:03:34;;;;;;;15.15;11.02;;;;;;;;;;4997415;28;20220;-61
2021/12/29 13:05:59;;;;;;;15.70;9.95;;;;;;;;;;4998126;28;20220;-60
2021/12/29 13:08:26;;;;;;;16.52;10.32;;;;;;;;;;5004852;28;20216;-61
2021/12/29 13:10:52;;;;;;;15.55;11.25;;;;;;;;;;5004917;28;20608;-61
2021/12/29 13:13:21;;;;;;;13.57;9.43;;;;;;;;;;5004218;28;20216;-61
2021/12/29 13:15:48;;;;;;;16.02;14.32;;;;;;;;;;5001399;28;20220;-61
2021/12/29 13:18:15;;;;;;;15.73;9.52;;;;;;;;;;5006527;28;20216;-61
2021/12/29 13:20:41;;;;;;;14.25;9.48;;;;;;;;;;5006527;28;20215;-61
2021/12/29 13:23:08;;;;;;;12.50;9.55;;;;;;;;;;4998093;28;20762;-61
2021/12/29 13:25:36;;;;;;;14.63;9.23;;;;;;;;;;4997645;28;20619;-61
2021/12/29 13:28:03;;;;;;;17.50;9.52;;;;;;;;;;4996806;28;20213;-61
2021/12/29 13:30:29;;;;;;;13.75;8.10;;;;;;;;;;4998041;28;20232;-61
2021/12/29 13:32:55;;;;;;;13.88;8.13;;;;;;;;;;5006903;28;20251;-61
2021/12/29 13:35:22;;;;;;;15.07;9.00;;;;;;;;;;5005801;28;20319;-61
2021/12/29 13:37:47;;;;;;;22.00;11.55;;;;;;;;;;5005506;28;20208;-61
2021/12/29 13:40:15;;;;;;;12.68;8.40;;;;;;;;;;5005695;28;20238;-61
2021/12/29 13:42:41;;;;;;;18.10;10.13;;;;;;;;;;5005327;28;20225;-61
2021/12/29 13:45:06;;;;;;;17.45;11.27;;;;;;;;;;5000860;28;20231;-61
2021/12/29 13:47:32;;;;;;;14.35;10.13;;;;;;;;;;4997734;28;20323;-61
2021/12/29 13:49:57;;;;;;;15.23;9.00;;;;;;;;;;4995323;28;20812;-61
2021/12/29 13:52:22;;;;;;;14.40;9.23;;;;;;;;;;5002878;28;20204;-61
2021/12/29 13:54:47;;;;;;;15.50;9.98;;;;;;;;;;5012571;28;20259;-62
2021/12/29 13:57:13;;;;;;;14.10;8.90;;;;;;;;;;5012703;28;20217;-62
2021/12/29 13:59:38;;;;;;;14.73;8.40;;;;;;;;;;5011664;28;20208;-62
2021/12/29 14:02:05;;;;;;;15.40;9.30;;;;;;;;;;5018599;28;20228;-64
2021/12/29 14:04:34;;;;;;;17.63;10.18;;;;;;;;;;5029388;28;20212;-65
2021/12/29 14:07:03;;;;;;;19.25;10.02;;;;;;;;;;5013411;28;20216;-69
2021/12/29 14:09:28;;;;;;;15.02;7.53;;;;;;;;;;5009967;28;20235;-66
2021/12/29 14:12:03;;;;;;;15.10;8.02;;;;;;;;;;5009401;28;20236;-66
2021/12/29 14:14:29;;;;;;;14.82;8.02;;;;;;;;;;5010882;28;20703;-66
2021/12/29 14:16:54;;;;;;;12.63;7.22;;;;;;;;;;5011330;28;20217;-66
2021/12/29 14:19:21;;;;;;;18.05;9.10;;;;;;;;;;5010127;28;20236;-66
2021/12/29 14:21:47;;;;;;;11.65;8.02;;;;;;;;;;5011071;28;20232;-66
2021/12/29 14:24:13;;;;;;;18.10;9.30;;;;;;;;;;5010887;28;20247;-65